Time;durP1;ratioP1;P1;durP2;ratioP2;P2;SDS_P1;SDS_P2;PMS_P1;PMS_P2;Temp;Humidity;BMP_temperature;BMP_pressure;BME280_temperature;BME280_humidity;BME280_pressure;Samples;Min_cycle;Max_cycle;Signal;HPM_P1;HPM_P2
2022/06/02 00:01:05;;;;;;;;;;;;;;;22.46;48.14;100988.59;2082900;28;847;-58
2022/06/02 00:02:24;;;;;;;;;;;;;;;22.45;48.00;100990.44;2082749;28;803;-57
2022/06/02 00:03:41;;;;;;;;;;;;;;;22.44;48.29;100995.88;2082843;28;1006;-57
2022/06/02 00:04:46;;;;;;;;;;;;;;;22.44;47.57;100991.38;2083049;28;780;-58
2022/06/02 00:06:07;;;;;;;;;;;;;;;22.45;47.07;100994.94;2082900;28;986;-59
2022/06/02 00:07:19;;;;;;;;;;;;;;;22.44;46.75;100990.47;2082792;28;1052;-57
2022/06/02 00:08:36;;;;;;;;;;;;;;;22.43;46.85;100991.38;2082834;28;890;-58
2022/06/02 00:09:57;;;;;;;;;;;;;;;22.42;47.18;100992.31;2082852;28;895;-59
2022/06/02 00:11:15;;;;;;;;;;;;;;;22.42;46.99;100989.63;2082759;28;1961;-57
2022/06/02 00:12:24;;;;;;;;;;;;;;;22.41;47.60;100985.16;2082922;28;946;-59
2022/06/02 00:13:29;;;;;;;;;;;;;;;22.41;47.00;100987.88;2082827;28;827;-57
2022/06/02 00:14:34;;;;;;;;;;;;;;;22.41;46.15;100990.56;2082143;28;977;-58
2022/06/02 00:15:37;;;;;;;;;;;;;;;22.40;46.70;100986.09;2082173;28;875;-57
2022/06/02 00:16:40;;;;;;;;;;;;;;;22.39;46.93;100981.66;2082805;28;922;-57
2022/06/02 00:17:46;;;;;;;;;;;;;;;22.38;46.37;100982.59;2082646;28;1158;-58
2022/06/02 00:18:51;;;;;;;;;;;;;;;22.37;47.17;100987.13;2082820;28;985;-58
2022/06/02 00:19:57;;;;;;;;;;;;;;;22.38;46.66;100982.59;2082752;28;792;-56
2022/06/02 00:21:00;;;;;;;;;;;;;;;22.36;47.29;100986.25;2082832;28;1001;-58
2022/06/02 00:22:06;;;;;;;;;;;;;;;22.38;46.68;100985.28;2082075;28;958;-58
2022/06/02 00:23:24;;;;;;;;;;;;;;;22.37;46.57;100981.72;2082266;28;1076;-57
2022/06/02 00:24:30;;;;;;;;;;;;;;;22.36;46.96;100985.34;2082759;28;949;-58
2022/06/02 00:25:35;;;;;;;;;;;;;;;22.35;46.88;100984.50;2082725;28;989;-56
2022/06/02 00:26:41;;;;;;;;;;;;;;;22.36;47.40;100983.56;2082726;28;834;-58
2022/06/02 00:27:47;;;;;;;;;;;;;;;22.36;46.64;100982.66;2082715;28;792;-58
2022/06/02 00:28:59;;;;;;;;;;;;;;;22.35;46.69;100981.78;2083760;28;863;-58
2022/06/02 00:30:08;;;;;;;;;;;;;;;22.35;46.87;100971.00;2084324;28;1918;-57
2022/06/02 00:31:20;;;;;;;;;;;;;;;22.35;47.72;100972.81;2084375;28;1072;-59
2022/06/02 00:32:34;;;;;;;;;;;;;;;22.34;47.34;100966.53;2084313;28;859;-57
2022/06/02 00:33:41;;;;;;;;;;;;;;;22.34;48.23;100971.94;2084340;28;938;-58
2022/06/02 00:34:47;;;;;;;;;;;;;;;22.34;47.97;100974.63;2084494;28;843;-58
2022/06/02 00:35:51;;;;;;;;;;;;;;;22.34;47.07;100974.63;2084356;28;859;-58
2022/06/02 00:36:59;;;;;;;;;;;;;;;22.33;47.22;100972.88;2084210;28;1060;-58
2022/06/02 00:38:05;;;;;;;;;;;;;;;22.33;47.50;100969.28;2084320;28;832;-58
2022/06/02 00:39:08;;;;;;;;;;;;;;;22.31;48.17;100966.66;2084382;28;830;-58
2022/06/02 00:40:09;;;;;;;;;;;;;;;22.32;47.39;100967.53;2084285;28;831;-59
2022/06/02 00:41:10;;;;;;;;;;;;;;;22.31;48.01;100965.75;2084167;28;2006;-57
2022/06/02 00:42:25;;;;;;;;;;;;;;;22.31;48.25;100965.75;2084193;28;970;-58
2022/06/02 00:43:28;;;;;;;;;;;;;;;22.31;48.01;100966.66;2084188;28;1057;-59
2022/06/02 00:44:39;;;;;;;;;;;;;;;22.32;48.36;100956.72;2084173;28;1052;-59
2022/06/02 00:45:41;;;;;;;;;;;;;;;22.30;47.08;100959.50;2084215;28;874;-58
2022/06/02 00:47:02;;;;;;;;;;;;;;;22.29;47.52;100957.75;2084242;28;997;-59
2022/06/02 00:48:06;;;;;;;;;;;;;;;22.28;47.32;100950.59;2084263;28;886;-58
2022/06/02 00:49:14;;;;;;;;;;;;;;;22.29;48.29;100956.84;2084202;28;883;-57
2022/06/02 00:50:25;;;;;;;;;;;;;;;22.29;48.18;100952.34;2084283;28;1879;-58
2022/06/02 00:51:45;;;;;;;;;;;;;;;22.30;48.02;100945.13;2084257;28;1048;-57
2022/06/02 00:53:08;;;;;;;;;;;;;;;22.29;47.97;100946.94;2084186;28;1045;-58
2022/06/02 00:58:41;;;;;;;;;;;;;;;22.26;48.12;100935.38;2084260;28;650;-57
2022/06/02 00:59:44;;;;;;;;;;;;;;;22.27;48.07;100943.44;2084077;28;982;-58
2022/06/02 01:00:44;;;;;;;;;;;;;;;22.26;47.98;100938.06;2084047;28;1046;-58
2022/06/02 01:01:44;;;;;;;;;;;;;;;22.25;47.43;100937.22;2084058;28;776;-57
2022/06/02 01:02:50;;;;;;;;;;;;;;;22.24;47.02;100938.16;2084067;28;1024;-58
2022/06/02 01:03:53;;;;;;;;;;;;;;;22.25;46.95;100933.63;2084109;28;831;-57
2022/06/02 01:04:54;;;;;;;;;;;;;;;22.25;46.70;100929.13;2084075;28;998;-58
2022/06/02 01:06:03;;;;;;;;;;;;;;;22.25;47.82;100933.63;2084037;28;950;-58
2022/06/02 01:07:14;;;;;;;;;;;;;;;22.25;46.33;100939.00;2084086;28;835;-59
2022/06/02 01:08:25;;;;;;;;;;;;;;;22.25;46.96;100930.91;2084055;28;1072;-56
2022/06/02 01:09:47;;;;;;;;;;;;;;;22.26;46.43;100932.69;2084023;28;900;-56
2022/06/02 01:10:55;;;;;;;;;;;;;;;22.26;46.95;100935.38;2083953;28;1874;-59
2022/06/02 01:12:13;;;;;;;;;;;;;;;22.25;47.11;100937.22;2084064;28;831;-58
2022/06/02 01:13:16;;;;;;;;;;;;;;;22.26;46.17;100927.28;2083998;28;1060;-57
2022/06/02 01:14:45;;;;;;;;;;;;;;;22.26;46.60;100927.28;2083982;28;962;-57
2022/06/02 01:15:59;;;;;;;;;;;;;;;22.26;46.30;100925.47;2058561;28;1028;-58
2022/06/02 01:16:59;;;;;;;;;;;;;;;22.26;46.61;100921.88;2058586;28;1064;-58
2022/06/02 01:18:18;;;;;;;;;;;;;;;22.25;46.36;100921.03;2058483;28;1048;-58
2022/06/02 01:19:19;;;;;;;;;;;;;;;22.26;46.97;100925.47;2058636;28;1033;-59
2022/06/02 01:20:29;;;;;;;;;;;;;;;22.27;46.47;100923.66;2058552;28;971;-57
2022/06/02 01:21:32;;;;;;;;;;;;;;;22.27;46.26;100923.66;2058621;28;824;-58
2022/06/02 01:22:38;;;;;;;;;;;;;;;22.26;46.05;100925.47;2058604;28;990;-58
2022/06/02 01:23:52;;;;;;;;;;;;;;;22.27;46.58;100921.84;2058613;28;1037;-57
2022/06/02 01:25:02;;;;;;;;;;;;;;;22.27;46.92;100921.84;2058617;28;1089;-59
2022/06/02 01:26:21;;;;;;;;;;;;;;;22.27;47.01;100921.84;2058592;28;1053;-58
2022/06/02 01:27:40;;;;;;;;;;;;;;;22.28;46.16;100922.72;2058512;28;1114;-57
2022/06/02 01:28:55;;;;;;;;;;;;;;;22.28;46.95;100920.00;2058548;28;1088;-58
2022/06/02 01:29:55;;;;;;;;;;;;;;;22.27;46.75;100918.25;2058551;28;860;-59
2022/06/02 01:31:09;;;;;;;;;;;;;;;22.26;47.23;100909.28;2058437;28;1914;-58
2022/06/02 01:32:20;;;;;;;;;;;;;;;22.26;47.56;100905.69;2058605;28;879;-58
2022/06/02 01:33:20;;;;;;;;;;;;;;;22.26;47.27;100909.28;2058411;28;976;-58
2022/06/02 01:34:21;;;;;;;;;;;;;;;22.26;47.21;100898.50;2058522;28;816;-58
2022/06/02 01:35:30;;;;;;;;;;;;;;;22.26;47.10;100898.50;2058527;28;844;-56
2022/06/02 01:36:42;;;;;;;;;;;;;;;22.25;46.67;100896.75;2058511;28;994;-58
2022/06/02 01:37:49;;;;;;;;;;;;;;;22.26;46.69;100887.69;2058479;28;994;-58
2022/06/02 01:39:20;;;;;;;;;;;;;;;22.26;47.23;100887.69;2058049;28;1212;-57
2022/06/02 01:40:42;;;;;;;;;;;;;;;22.26;47.73;100882.31;2058472;28;1010;-55
2022/06/02 01:41:43;;;;;;;;;;;;;;;22.27;47.34;100893.97;2058060;28;2127;-58
2022/06/02 01:42:58;;;;;;;;;;;;;;;22.26;47.66;100885.00;2058376;28;866;-59
2022/06/02 01:44:14;;;;;;;;;;;;;;;22.27;47.99;100896.66;2058469;28;939;-58
2022/06/02 01:45:23;;;;;;;;;;;;;;;22.26;47.33;100886.81;2058318;28;2519;-56
2022/06/02 01:46:26;;;;;;;;;;;;;;;22.26;48.06;100879.59;2058396;28;1153;-57
2022/06/02 01:47:37;;;;;;;;;;;;;;;22.27;48.05;100866.97;2058427;28;780;-57
2022/06/02 01:48:43;;;;;;;;;;;;;;;22.26;48.25;100879.59;2058404;28;1002;-57
2022/06/02 01:49:43;;;;;;;;;;;;;;;22.26;47.57;100870.63;2058410;28;1018;-58
2022/06/02 01:51:02;;;;;;;;;;;;;;;22.26;48.12;100870.63;2058307;28;1887;-58
2022/06/02 01:52:05;;;;;;;;;;;;;;;22.25;48.39;100875.16;2058371;28;1074;-58
2022/06/02 01:53:14;;;;;;;;;;;;;;;22.25;48.32;100864.34;2075549;28;982;-58
2022/06/02 01:54:26;;;;;;;;;;;;;;;22.26;48.39;100870.63;2083675;28;855;-57
2022/06/02 01:55:33;;;;;;;;;;;;;;;22.26;48.29;100868.81;2083699;28;919;-59
2022/06/02 01:56:48;;;;;;;;;;;;;;;22.26;48.08;100865.22;2083702;28;839;-58
2022/06/02 01:58:06;;;;;;;;;;;;;;;22.26;48.85;100865.22;2083676;28;803;-57
2022/06/02 01:59:23;;;;;;;;;;;;;;;22.25;48.61;100864.34;2083675;28;910;-58
2022/06/02 02:00:26;;;;;;;;;;;;;;;22.26;48.42;100854.44;2083718;28;1001;-58
2022/06/02 02:01:35;;;;;;;;;;;;;;;22.25;48.93;100856.25;2082965;28;1370;-59
2022/06/02 02:02:59;;;;;;;;;;;;;;;22.25;48.79;100852.66;2083122;28;1052;-56
2022/06/02 02:04:11;;;;;;;;;;;;;;;22.25;49.01;100858.97;2083602;28;1009;-59
2022/06/02 02:05:15;;;;;;;;;;;;;;;22.25;48.32;100852.66;2082819;28;1265;-58
2022/06/02 02:06:38;;;;;;;;;;;;;;;22.25;48.66;100856.25;2083032;28;800;-55
2022/06/02 02:07:41;;;;;;;;;;;;;;;22.25;48.83;100853.56;2083576;28;1276;-58
2022/06/02 02:08:50;;;;;;;;;;;;;;;22.25;48.77;100858.06;2083569;28;973;-58
2022/06/02 02:09:56;;;;;;;;;;;;;;;22.24;49.08;100857.19;2082884;28;843;-58
2022/06/02 02:10:56;;;;;;;;;;;;;;;22.24;49.69;100854.50;2082980;28;1949;-58
2022/06/02 02:11:59;;;;;;;;;;;;;;;22.25;49.66;100853.56;2083511;28;826;-58
2022/06/02 02:13:05;;;;;;;;;;;;;;;22.26;50.54;100855.31;2083545;28;1008;-58
2022/06/02 02:14:06;;;;;;;;;;;;;;;22.26;50.18;100849.94;2083583;28;981;-58
2022/06/02 02:15:12;;;;;;;;;;;;;;;22.26;51.21;100849.94;2083646;28;763;-58
2022/06/02 02:16:18;;;;;;;;;;;;;;;22.26;51.46;100849.03;2083694;28;736;-58
2022/06/02 02:17:21;;;;;;;;;;;;;;;22.25;51.84;100842.78;2083325;28;1035;-58
2022/06/02 02:18:43;;;;;;;;;;;;;;;22.26;51.65;100849.03;2083613;28;891;-58
2022/06/02 02:20:00;;;;;;;;;;;;;;;22.25;51.99;100848.16;2083576;28;783;-59
2022/06/02 02:21:19;;;;;;;;;;;;;;;22.25;52.12;100841.88;2083472;28;870;-57
2022/06/02 02:22:34;;;;;;;;;;;;;;;22.26;51.88;100838.25;2083509;28;966;-57
2022/06/02 02:23:50;;;;;;;;;;;;;;;22.23;51.63;100839.25;2083469;28;787;-58
2022/06/02 02:25:02;;;;;;;;;;;;;;;22.24;52.47;100846.41;2083492;28;866;-57
2022/06/02 02:26:14;;;;;;;;;;;;;;;22.23;52.58;100836.56;2083463;28;799;-58
2022/06/02 02:28:05;;;;;;;;;;;;;;;22.22;51.87;100837.50;2083431;28;811;-57
2022/06/02 02:29:23;;;;;;;;;;;;;;;22.20;51.69;100840.25;2058187;28;824;-58
2022/06/02 02:30:27;;;;;;;;;;;;;;;22.19;52.31;100832.22;2058057;28;1935;-58
2022/06/02 02:31:46;;;;;;;;;;;;;;;22.19;52.21;100833.09;2050000;29;797;-59
2022/06/02 02:32:55;;;;;;;;;;;;;;;22.18;52.05;100833.16;2052391;28;978;-59
2022/06/02 02:34:00;;;;;;;;;;;;;;;22.17;51.83;100831.41;2058007;28;1041;-59
2022/06/02 02:35:07;;;;;;;;;;;;;;;22.17;51.39;100834.09;2058098;28;982;-58
2022/06/02 02:36:25;;;;;;;;;;;;;;;22.15;50.66;100830.59;2058031;28;1002;-59
2022/06/02 02:37:45;;;;;;;;;;;;;;;22.14;51.06;100831.53;2057992;28;1243;-58
2022/06/02 02:38:45;;;;;;;;;;;;;;;22.12;50.27;100831.56;2057973;28;1009;-58
2022/06/02 02:39:56;;;;;;;;;;;;;;;22.12;50.22;100822.63;2057979;28;993;-58
2022/06/02 02:41:00;;;;;;;;;;;;;;;22.13;49.84;100827.06;2058016;28;998;-59
2022/06/02 02:42:06;;;;;;;;;;;;;;;22.12;49.62;100825.31;2057953;28;883;-58
2022/06/02 02:43:09;;;;;;;;;;;;;;;22.11;48.77;100823.56;2058055;28;974;-58
2022/06/02 02:44:15;;;;;;;;;;;;;;;22.10;48.16;100817.25;2057939;28;828;-58
2022/06/02 02:45:25;;;;;;;;;;;;;;;22.10;48.67;100821.78;2057904;28;1019;-57
2022/06/02 02:46:34;;;;;;;;;;;;;;;22.10;48.77;100819.09;2058022;28;1016;-58
2022/06/02 02:47:37;;;;;;;;;;;;;;;22.10;47.99;100824.50;2057908;28;1061;-57
2022/06/02 02:48:43;;;;;;;;;;;;;;;22.11;47.88;100818.16;2057895;28;1034;-58
2022/06/02 02:49:49;;;;;;;;;;;;;;;22.10;47.58;100824.50;2057985;28;982;-58
2022/06/02 02:51:10;;;;;;;;;;;;;;;22.10;47.35;100816.41;2057564;28;1903;-58
2022/06/02 02:52:26;;;;;;;;;;;;;;;22.09;47.14;100818.19;2057901;28;1133;-59
2022/06/02 02:53:26;;;;;;;;;;;;;;;22.10;46.87;100811.00;2057814;28;1034;-58
2022/06/02 02:54:45;;;;;;;;;;;;;;;22.09;47.54;100809.25;2057933;28;963;-58
2022/06/02 02:55:51;;;;;;;;;;;;;;;22.08;47.96;100802.09;2057844;28;884;-58
2022/06/02 02:56:51;;;;;;;;;;;;;;;22.08;47.54;100807.50;2049842;29;1672;-55
2022/06/02 02:58:02;;;;;;;;;;;;;;;22.08;47.59;100811.06;2049868;29;864;-57
2022/06/02 02:59:17;;;;;;;;;;;;;;;22.06;47.43;100805.72;2057878;28;957;-57
2022/06/02 03:00:22;;;;;;;;;;;;;;;22.07;46.87;100801.22;2057852;28;831;-57
2022/06/02 03:01:24;;;;;;;;;;;;;;;22.06;46.77;100811.13;2057955;28;840;-58
2022/06/02 03:02:28;;;;;;;;;;;;;;;22.07;47.62;100801.22;2057815;28;792;-56
2022/06/02 03:03:30;;;;;;;;;;;;;;;22.06;47.39;100794.09;2057788;28;1034;-58
2022/06/02 03:04:38;;;;;;;;;;;;;;;22.06;47.79;100800.34;2057824;28;978;-58
2022/06/02 03:05:41;;;;;;;;;;;;;;;22.06;47.58;100789.53;2083265;28;742;-59
2022/06/02 03:06:42;;;;;;;;;;;;;;;22.06;47.54;100789.53;2083132;28;1044;-58
2022/06/02 03:07:42;;;;;;;;;;;;;;;22.06;47.92;100786.84;2083129;28;862;-57
2022/06/02 03:08:58;;;;;;;;;;;;;;;22.06;47.59;100789.53;2083065;28;772;-57
2022/06/02 03:10:04;;;;;;;;;;;;;;;22.06;47.95;100780.59;2083094;28;935;-59
2022/06/02 03:11:31;;;;;;;;;;;;;;;22.05;47.98;100785.09;2083052;28;1088;-58
2022/06/02 03:12:31;;;;;;;;;;;;;;;22.05;47.79;100778.84;2057587;28;1103;-58
2022/06/02 03:13:39;;;;;;;;;;;;;;;22.05;47.31;100771.59;2057779;28;846;-58
2022/06/02 03:14:58;;;;;;;;;;;;;;;22.06;47.76;100777.91;2057778;28;951;-59
2022/06/02 03:16:02;;;;;;;;;;;;;;;22.06;47.56;100775.19;2057758;28;824;-58
2022/06/02 03:17:20;;;;;;;;;;;;;;;22.06;47.54;100772.50;2057765;28;987;-59
2022/06/02 03:18:26;;;;;;;;;;;;;;;22.06;47.52;100772.50;2057739;28;982;-57
2022/06/02 03:19:32;;;;;;;;;;;;;;;22.06;46.76;100777.91;2057787;28;701;-58
2022/06/02 03:21:10;;;;;;;;;;;;;;;22.05;47.29;100773.44;2049688;29;1046;-58
2022/06/02 03:22:11;;;;;;;;;;;;;;;22.06;46.90;100775.19;2031023;29;1301;-57
2022/06/02 03:23:29;;;;;;;;;;;;;;;22.06;46.94;100775.19;2034003;29;1018;-57
2022/06/02 03:24:46;;;;;;;;;;;;;;;22.08;46.79;100770.59;2033892;29;980;-59
2022/06/02 03:25:53;;;;;;;;;;;;;;;22.08;46.79;100769.72;2033977;29;852;-59
2022/06/02 03:27:03;;;;;;;;;;;;;;;22.08;47.12;100773.28;2033891;29;991;-57
2022/06/02 03:28:20;;;;;;;;;;;;;;;22.09;46.30;100766.09;2033910;29;983;-59
2022/06/02 03:29:33;;;;;;;;;;;;;;;22.08;46.69;100765.19;2033927;29;856;-57
2022/06/02 03:30:41;;;;;;;;;;;;;;;22.08;46.85;100765.19;2033811;29;1990;-58
2022/06/02 03:32:04;;;;;;;;;;;;;;;22.09;46.39;100772.34;2033900;29;916;-58
2022/06/02 03:33:08;;;;;;;;;;;;;;;22.08;47.00;100767.03;2010655;29;1144;-59
2022/06/02 03:34:08;;;;;;;;;;;;;;;22.09;46.56;100766.09;2010618;29;963;-58
2022/06/02 03:35:27;;;;;;;;;;;;;;;22.09;46.94;100772.34;2010633;29;991;-57
2022/06/02 03:36:27;;;;;;;;;;;;;;;22.10;46.86;100773.25;2010721;29;960;-58
2022/06/02 03:37:36;;;;;;;;;;;;;;;22.09;47.12;100764.25;2010582;29;976;-59
2022/06/02 03:38:46;;;;;;;;;;;;;;;22.10;47.12;100771.41;2010607;29;964;-58
2022/06/02 03:39:55;;;;;;;;;;;;;;;22.10;47.20;100762.44;2010695;29;711;-59
2022/06/02 03:40:55;;;;;;;;;;;;;;;22.11;47.06;100764.22;2010626;29;987;-58
2022/06/02 03:41:58;;;;;;;;;;;;;;;22.10;46.65;100768.72;2002980;29;1093;-58
2022/06/02 03:43:04;;;;;;;;;;;;;;;22.10;46.75;100762.44;2003145;29;1047;-59
2022/06/02 03:44:21;;;;;;;;;;;;;;;22.10;47.30;100768.72;2010562;29;1102;-59
2022/06/02 03:45:40;;;;;;;;;;;;;;;22.10;46.95;100763.31;2010586;29;1096;-58
2022/06/02 03:46:46;;;;;;;;;;;;;;;22.11;47.23;100764.22;2010642;29;786;-58
2022/06/02 03:47:49;;;;;;;;;;;;;;;22.10;47.21;100765.16;2010586;29;1055;-57
2022/06/02 03:49:04;;;;;;;;;;;;;;;22.10;47.31;100762.44;2010591;29;861;-58
2022/06/02 03:50:19;;;;;;;;;;;;;;;22.10;47.94;100766.00;2022132;29;941;-58
2022/06/02 03:51:22;;;;;;;;;;;;;;;22.10;48.06;100763.31;2033800;29;954;-58
2022/06/02 03:52:22;;;;;;;;;;;;;;;22.11;47.14;100758.81;2033796;29;975;-57
2022/06/02 03:53:37;;;;;;;;;;;;;;;22.10;47.36;100751.66;2038292;28;1043;-58
2022/06/02 03:54:43;;;;;;;;;;;;;;;22.10;48.00;100757.06;2057640;28;828;-58
2022/06/02 03:55:50;;;;;;;;;;;;;;;22.11;47.88;100758.81;2057508;28;824;-58
2022/06/02 03:56:56;;;;;;;;;;;;;;;22.10;47.35;100749.81;2057565;28;785;-58
2022/06/02 03:58:16;;;;;;;;;;;;;;;22.10;48.04;100754.34;2057462;28;979;-58
2022/06/02 03:59:19;;;;;;;;;;;;;;;22.11;47.92;100753.41;2057589;28;918;-58
2022/06/02 04:00:25;;;;;;;;;;;;;;;22.11;48.13;100758.81;2057490;28;801;-57
2022/06/02 04:01:29;;;;;;;;;;;;;;;22.11;48.07;100756.13;2057583;28;843;-58
2022/06/02 04:02:34;;;;;;;;;;;;;;;23.12;45.27;100747.28;2057688;28;934;-58
2022/06/02 04:03:55;;;;;;;;;;;;;;;24.07;43.50;100746.47;2059270;28;777;-57
2022/06/02 04:05:17;;;;;;;;;;;;;;;24.89;41.75;100749.53;2058618;28;1920;-55
2022/06/02 04:06:35;;;;;;;;;;;;;;;25.37;40.13;100746.09;2059252;28;808;-56
2022/06/02 04:07:41;;;;;;;;;;;;;;;25.75;39.68;100737.69;2059157;28;852;-57
2022/06/02 04:08:50;;;;;;;;;;;;;;;25.93;39.49;100733.03;2059168;28;998;-57
2022/06/02 04:10:08;;;;;;;;;;;;;;;26.27;38.48;100738.34;2059156;28;856;-56
2022/06/02 04:11:17;;;;;;;;;;;;;;;26.55;38.35;100734.84;2079585;28;1026;-56
2022/06/02 04:13:47;;;;;;;;;;;;;;;27.18;37.42;100740.97;2084476;28;637;-56
2022/06/02 04:15:00;;;;;;;;;;;;;;;27.33;37.27;100725.53;2084456;28;870;-56
2022/06/02 04:16:00;;;;;;;;;;;;;;;27.55;37.07;100721.47;2084443;28;875;-57
2022/06/02 04:17:05;;;;;;;;;;;;;;;27.71;36.55;100720.44;2084386;28;1025;-57
2022/06/02 04:18:08;;;;;;;;;;;;;;;27.99;35.98;100713.16;2084299;28;1252;-56
2022/06/02 04:20:47;;;;;;;;;;;;;;;28.39;35.32;100710.47;2084530;28;1136;-56
2022/06/02 04:22:00;;;;;;;;;;;;;;;28.43;35.20;100709.28;2084321;28;815;-56
2022/06/02 04:23:19;;;;;;;;;;;;;;;28.65;34.78;100708.66;2084424;28;859;-56
2022/06/02 04:24:35;;;;;;;;;;;;;;;28.92;34.13;100713.19;2084441;28;874;-56
2022/06/02 04:25:47;;;;;;;;;;;;;;;29.18;34.10;100704.09;2083756;28;894;-56
2022/06/02 04:26:47;;;;;;;;;;;;;;;29.37;34.06;100706.34;2083809;28;981;-56
2022/06/02 04:27:47;;;;;;;;;;;;;;;29.51;34.01;100710.81;2084328;28;973;-56
2022/06/02 04:28:50;;;;;;;;;;;;;;;29.57;34.01;100707.63;2084439;28;974;-56
2022/06/02 04:29:54;;;;;;;;;;;;;;;29.72;33.91;100706.50;2084297;28;804;-54
2022/06/02 04:31:00;;;;;;;;;;;;;;;29.88;33.88;100700.75;2084251;28;2025;-56
2022/06/02 04:32:03;;;;;;;;;;;;;;;29.89;33.74;100701.63;2084513;28;544;-56
2022/06/02 04:33:09;;;;;;;;;;;;;;;30.05;33.88;100700.47;2084259;28;1006;-57
2022/06/02 04:34:18;;;;;;;;;;;;;;;30.15;33.93;100707.88;2084469;28;926;-55
2022/06/02 04:35:25;;;;;;;;;;;;;;;30.35;33.47;100699.97;2084337;28;1044;-57
2022/06/02 04:36:25;;;;;;;;;;;;;;;30.46;33.32;100702.75;2084353;28;803;-57
2022/06/02 04:37:28;;;;;;;;;;;;;;;30.58;33.56;100702.81;2084179;28;1220;-56
2022/06/02 04:38:58;;;;;;;;;;;;;;;30.56;33.67;100697.47;2084249;28;1052;-56
2022/06/02 04:40:17;;;;;;;;;;;;;;;30.59;33.28;100699.09;2058944;28;1065;-57
2022/06/02 04:41:24;;;;;;;;;;;;;;;30.61;33.51;100699.84;2058860;28;1104;-56
2022/06/02 04:42:24;;;;;;;;;;;;;;;30.70;33.43;100696.38;2058935;28;1001;-56
2022/06/02 04:43:40;;;;;;;;;;;;;;;30.80;33.19;100696.50;2058891;28;1136;-56
2022/06/02 04:44:59;;;;;;;;;;;;;;;30.80;33.21;100698.41;2058898;28;950;-56
2022/06/02 04:46:07;;;;;;;;;;;;;;;30.86;33.02;100700.66;2058904;28;876;-56
2022/06/02 04:47:16;;;;;;;;;;;;;;;30.89;32.67;100701.25;2058867;28;685;-57
2022/06/02 04:48:17;;;;;;;;;;;;;;;30.84;32.79;100695.28;2058913;28;782;-57
2022/06/02 04:49:33;;;;;;;;;;;;;;;30.77;32.55;100696.75;2058821;28;966;-56
2022/06/02 04:50:48;;;;;;;;;;;;;;;31.05;32.05;100698.16;2058854;28;1911;-57
2022/06/02 04:51:58;;;;;;;;;;;;;;;30.96;31.75;100695.28;2058814;28;978;-57
2022/06/02 04:53:16;;;;;;;;;;;;;;;30.98;31.65;100696.03;2058895;28;768;-57
2022/06/02 04:54:19;;;;;;;;;;;;;;;31.07;31.32;100689.84;2058872;28;1049;-57
2022/06/02 04:55:29;;;;;;;;;;;;;;;31.12;31.09;100697.66;2058788;28;955;-56
2022/06/02 04:56:31;;;;;;;;;;;;;;;31.08;30.41;100696.16;2050768;29;1207;-56
2022/06/02 04:57:47;;;;;;;;;;;;;;;31.14;30.35;100692.94;2050996;28;1063;-57
2022/06/02 04:58:47;;;;;;;;;;;;;;;31.07;30.65;100698.03;2050732;29;618;-57
2022/06/02 04:59:56;;;;;;;;;;;;;;;31.12;30.28;100693.06;2050741;29;781;-57
2022/06/02 05:01:18;;;;;;;;;;;;;;;31.22;29.40;100689.59;2058807;28;891;-57
2022/06/02 05:02:23;;;;;;;;;;;;;;;31.35;29.30;100690.34;2058784;28;1054;-55
2022/06/02 05:03:30;;;;;;;;;;;;;;;31.40;29.26;100693.56;2058805;28;887;-55
2022/06/02 05:04:31;;;;;;;;;;;;;;;31.40;29.07;100689.97;2058722;28;970;-57
2022/06/02 05:05:54;;;;;;;;;;;;;;;31.59;28.34;100694.78;2058720;28;886;-57
2022/06/02 05:07:09;;;;;;;;;;;;;;;31.69;27.87;100693.03;2053384;28;1177;-57
2022/06/02 05:08:29;;;;;;;;;;;;;;;31.56;28.04;100695.03;2058742;28;931;-57
2022/06/02 05:09:47;;;;;;;;;;;;;;;31.60;27.96;100697.38;2058692;28;812;-57
2022/06/02 05:11:05;;;;;;;;;;;;;;;31.56;28.11;100687.69;2050522;29;1890;-56
2022/06/02 05:12:19;;;;;;;;;;;;;;;31.67;27.78;100691.41;2052989;28;1061;-56
2022/06/02 05:13:30;;;;;;;;;;;;;;;31.71;27.37;100687.41;2058632;28;1061;-56
2022/06/02 05:15:05;;;;;;;;;;;;;;;31.63;27.34;100688.91;2050600;29;959;-57
2022/06/02 05:16:05;;;;;;;;;;;;;;;31.72;27.43;100679.09;2031477;29;1213;-57
2022/06/02 05:17:14;;;;;;;;;;;;;;;31.86;27.35;100685.28;2045928;28;1428;-57
2022/06/02 05:18:33;;;;;;;;;;;;;;;31.65;27.54;100677.84;2058627;28;1213;-58
2022/06/02 05:19:52;;;;;;;;;;;;;;;31.59;27.13;100678.34;2058644;28;987;-57
2022/06/02 05:20:55;;;;;;;;;;;;;;;31.48;28.03;100685.59;2058640;28;832;-57
2022/06/02 05:22:09;;;;;;;;;;;;;;;31.56;27.71;100675.88;2058568;28;886;-58
2022/06/02 05:23:23;;;;;;;;;;;;;;;31.47;28.05;100680.25;2058780;28;548;-56
2022/06/02 05:24:39;;;;;;;;;;;;;;;31.52;27.77;100679.88;2058665;28;970;-55
2022/06/02 05:25:56;;;;;;;;;;;;;;;31.58;28.04;100680.22;2058586;28;876;-57
2022/06/02 05:27:05;;;;;;;;;;;;;;;31.49;28.15;100679.13;2058585;28;785;-57
2022/06/02 05:28:15;;;;;;;;;;;;;;;31.61;27.81;100679.97;2058605;28;1001;-58
2022/06/02 05:29:34;;;;;;;;;;;;;;;31.48;28.16;100682.84;2058629;28;792;-56
2022/06/02 05:30:46;;;;;;;;;;;;;;;31.57;28.03;100677.63;2058532;28;1911;-58
2022/06/02 05:32:00;;;;;;;;;;;;;;;31.68;27.91;100683.06;2058527;28;1389;-57
2022/06/02 05:33:11;;;;;;;;;;;;;;;31.86;27.39;100674.31;2058596;28;781;-58
2022/06/02 05:34:29;;;;;;;;;;;;;;;31.99;26.92;100676.91;2058518;28;866;-58
2022/06/02 05:35:43;;;;;;;;;;;;;;;31.92;27.14;100673.78;2058585;28;828;-57
2022/06/02 05:36:52;;;;;;;;;;;;;;;31.91;27.24;100681.16;2058523;28;1006;-57
2022/06/02 05:37:52;;;;;;;;;;;;;;;31.84;27.17;100676.31;2058516;28;940;-57
2022/06/02 05:39:13;;;;;;;;;;;;;;;31.94;27.06;100667.22;2058517;28;852;-58
2022/06/02 05:40:18;;;;;;;;;;;;;;;31.89;26.97;100671.31;2058473;28;998;-57
2022/06/02 05:41:19;;;;;;;;;;;;;;;31.84;27.30;100674.47;2058528;28;943;-57
2022/06/02 05:42:42;;;;;;;;;;;;;;;32.01;26.94;100672.16;2058464;28;919;-56
2022/06/02 05:44:04;;;;;;;;;;;;;;;32.11;26.62;100674.97;2058453;28;820;-56
2022/06/02 05:45:23;;;;;;;;;;;;;;;32.08;26.83;100673.38;2058500;28;842;-58
2022/06/02 05:46:33;;;;;;;;;;;;;;;32.30;26.76;100674.28;2058486;28;982;-57
2022/06/02 05:47:51;;;;;;;;;;;;;;;32.24;26.67;100664.69;2058454;28;1061;-57
2022/06/02 05:48:52;;;;;;;;;;;;;;;32.17;26.98;100666.22;2050429;28;971;-57
2022/06/02 05:50:03;;;;;;;;;;;;;;;32.11;26.93;100673.09;2050388;29;1006;-57
2022/06/02 05:51:10;;;;;;;;;;;;;;;32.03;26.97;100667.44;2076271;28;1964;-58
2022/06/02 05:52:13;;;;;;;;;;;;;;;32.28;27.03;100674.41;2083726;28;907;-57
2022/06/02 05:53:13;;;;;;;;;;;;;;;32.22;26.90;100669.44;2083669;28;867;-57
2022/06/02 05:54:24;;;;;;;;;;;;;;;32.23;27.02;100652.84;2083651;28;922;-57
2022/06/02 05:55:51;;;;;;;;;;;;;;;32.29;27.02;100662.47;2083107;28;784;-56
2022/06/02 05:56:51;;;;;;;;;;;;;;;32.28;27.12;100657.97;2077889;28;1268;-56
2022/06/02 05:58:10;;;;;;;;;;;;;;;32.43;26.77;100657.63;2074415;28;1621;-58
2022/06/02 05:59:25;;;;;;;;;;;;;;;32.37;26.55;100659.03;2076804;28;1188;-57
2022/06/02 06:00:37;;;;;;;;;;;;;;;32.47;26.73;100656.34;2082651;28;913;-57
2022/06/02 06:01:42;;;;;;;;;;;;;;;32.36;27.08;100658.19;2082619;28;1009;-58
2022/06/02 06:02:48;;;;;;;;;;;;;;;32.44;26.77;100665.72;2082626;28;780;-58
2022/06/02 06:03:59;;;;;;;;;;;;;;;32.40;27.03;100657.91;2082585;28;854;-57
2022/06/02 06:05:21;;;;;;;;;;;;;;;32.02;27.92;100652.00;2082666;28;788;-57
2022/06/02 06:06:28;;;;;;;;;;;;;;;32.30;27.19;100663.31;2082287;28;1183;-58
2022/06/02 06:07:36;;;;;;;;;;;;;;;32.41;26.87;100657.78;2082638;28;748;-58
2022/06/02 06:08:45;;;;;;;;;;;;;;;32.72;26.82;100657.81;2082570;28;1001;-57
2022/06/02 06:09:55;;;;;;;;;;;;;;;32.60;26.87;100650.69;2082628;28;882;-58
2022/06/02 06:11:06;;;;;;;;;;;;;;;32.57;26.85;100654.56;2082508;28;1878;-58
2022/06/02 06:12:20;;;;;;;;;;;;;;;32.47;27.11;100653.63;2082663;28;788;-58
2022/06/02 06:13:34;;;;;;;;;;;;;;;32.56;27.05;100654.69;2082577;28;985;-57
2022/06/02 06:14:34;;;;;;;;;;;;;;;32.73;26.84;100655.94;2074290;28;1049;-57
2022/06/02 06:15:35;;;;;;;;;;;;;;;32.77;26.76;100657.41;2074341;28;1010;-57